sensor_id;sensor_type;location;lat;lon;timestamp;pressure;altitude;pressure_sealevel;temperature;humidity
65329;BME280;51941;52.210;5.158;2022-09-09T00:01:13;100661.75;;;16.19;79.92
65329;BME280;51941;52.210;5.158;2022-09-09T00:03:53;100650.84;;;16.11;80.11
65329;BME280;51941;52.210;5.158;2022-09-09T00:06:24;100659.91;;;16.15;80.24
65329;BME280;51941;52.210;5.158;2022-09-09T00:09:00;100658.31;;;16.14;79.99
65329;BME280;51941;52.210;5.158;2022-09-09T00:11:38;100658.06;;;16.10;80.26
65329;BME280;51941;52.210;5.158;2022-09-09T00:14:12;100643.91;;;16.10;80.17
65329;BME280;51941;52.210;5.158;2022-09-09T00:16:44;100658.88;;;16.06;80.82
65329;BME280;51941;52.210;5.158;2022-09-09T00:19:20;100656.47;;;16.04;80.51
65329;BME280;51941;52.210;5.158;2022-09-09T00:21:56;100653.00;;;15.99;80.92
65329;BME280;51941;52.210;5.158;2022-09-09T00:24:29;100661.56;;;15.96;81.03
65329;BME280;51941;52.210;5.158;2022-09-09T00:27:04;100644.75;;;15.90;80.97
65329;BME280;51941;52.210;5.158;2022-09-09T00:29:37;100653.03;;;15.93;80.51
65329;BME280;51941;52.210;5.158;2022-09-09T00:32:13;100647.16;;;15.91;80.75
65329;BME280;51941;52.210;5.158;2022-09-09T00:34:46;100653.31;;;15.87;81.97
65329;BME280;51941;52.210;5.158;2022-09-09T00:37:13;100660.25;;;15.83;81.66
65329;BME280;51941;52.210;5.158;2022-09-09T00:39:42;100655.16;;;15.81;81.72
65329;BME280;51941;52.210;5.158;2022-09-09T00:42:16;100650.66;;;15.77;82.30
65329;BME280;51941;52.210;5.158;2022-09-09T00:44:52;100647.72;;;15.73;82.47
65329;BME280;51941;52.210;5.158;2022-09-09T00:47:35;100654.13;;;15.67;83.40
65329;BME280;51941;52.210;5.158;2022-09-09T00:50:15;100654.16;;;15.62;82.96
65329;BME280;51941;52.210;5.158;2022-09-09T00:52:47;100651.97;;;15.59;82.42
65329;BME280;51941;52.210;5.158;2022-09-09T00:55:24;100653.31;;;15.56;82.17
65329;BME280;51941;52.210;5.158;2022-09-09T00:57:56;100657.28;;;15.54;82.12
65329;BME280;51941;52.210;5.158;2022-09-09T01:00:24;100652.78;;;15.49;82.55
65329;BME280;51941;52.210;5.158;2022-09-09T01:03:03;100659.19;;;15.43;82.54
65329;BME280;51941;52.210;5.158;2022-09-09T01:05:42;100652.53;;;15.36;82.90
65329;BME280;51941;52.210;5.158;2022-09-09T01:08:25;100653.03;;;15.33;82.56
65329;BME280;51941;52.210;5.158;2022-09-09T01:10:59;100655.97;;;15.26;83.12
65329;BME280;51941;52.210;5.158;2022-09-09T01:13:32;100649.31;;;15.24;83.02
65329;BME280;51941;52.210;5.158;2022-09-09T01:16:08;100647.41;;;15.19;82.85
65329;BME280;51941;52.210;5.158;2022-09-09T01:18:40;100651.66;;;15.10;84.16
65329;BME280;51941;52.210;5.158;2022-09-09T01:21:16;100654.88;;;15.07;83.81
65329;BME280;51941;52.210;5.158;2022-09-09T01:24:11;100654.88;;;15.07;83.26
65329;BME280;51941;52.210;5.158;2022-09-09T01:26:56;100643.94;;;14.98;83.25
65329;BME280;51941;52.210;5.158;2022-09-09T01:29:25;100638.06;;;14.96;83.22
65329;BME280;51941;52.210;5.158;2022-09-09T01:31:54;100589.78;;;14.62;83.25
65329;BME280;51941;52.210;5.158;2022-09-09T01:34:23;100633.81;;;14.90;83.02
65329;BME280;51941;52.210;5.158;2022-09-09T01:36:56;100634.06;;;14.89;83.12
65329;BME280;51941;52.210;5.158;2022-09-09T01:39:25;100626.31;;;14.82;83.19
65329;BME280;51941;52.210;5.158;2022-09-09T01:42:01;100632.44;;;14.77;83.72
65329;BME280;51941;52.210;5.158;2022-09-09T01:44:29;100631.38;;;14.73;83.84
65329;BME280;51941;52.210;5.158;2022-09-09T01:46:56;100630.28;;;14.69;83.99
65329;BME280;51941;52.210;5.158;2022-09-09T01:49:23;100624.16;;;14.69;84.19
65329;BME280;51941;52.210;5.158;2022-09-09T01:51:53;100624.16;;;14.64;84.39
65329;BME280;51941;52.210;5.158;2022-09-09T01:54:29;100617.72;;;14.60;84.39
65329;BME280;51941;52.210;5.158;2022-09-09T01:57:08;100626.25;;;14.57;85.17
65329;BME280;51941;52.210;5.158;2022-09-09T01:59:47;100628.31;;;14.50;85.46
65329;BME280;51941;52.210;5.158;2022-09-09T02:02:17;100622.47;;;14.48;85.61
65329;BME280;51941;52.210;5.158;2022-09-09T02:05:02;100618.47;;;14.45;85.67
65329;BME280;51941;52.210;5.158;2022-09-09T02:07:39;100578.16;;;14.16;85.35
65329;BME280;51941;52.210;5.158;2022-09-09T02:10:19;100625.34;;;14.41;85.76
65329;BME280;51941;52.210;5.158;2022-09-09T02:13:01;100612.03;;;14.41;85.00
65329;BME280;51941;52.210;5.158;2022-09-09T02:15:34;100613.09;;;14.40;85.11
65329;BME280;51941;52.210;5.158;2022-09-09T02:18:07;100611.25;;;14.35;85.58
65329;BME280;51941;52.210;5.158;2022-09-09T02:20:37;100617.63;;;14.39;85.81
65329;BME280;51941;52.210;5.158;2022-09-09T02:23:05;100612.84;;;14.41;85.22
65329;BME280;51941;52.210;5.158;2022-09-09T02:25:35;100577.63;;;14.19;85.28
65329;BME280;51941;52.210;5.158;2022-09-09T02:28:16;100602.69;;;14.33;85.26
65329;BME280;51941;52.210;5.158;2022-09-09T02:30:45;100610.47;;;14.45;85.87
65329;BME280;51941;52.210;5.158;2022-09-09T02:33:14;100614.44;;;14.42;86.05
65329;BME280;51941;52.210;5.158;2022-09-09T02:35:45;100613.66;;;14.42;86.08
65329;BME280;51941;52.210;5.158;2022-09-09T02:38:16;100611.25;;;14.40;85.91
65329;BME280;51941;52.210;5.158;2022-09-09T02:40:54;100612.28;;;14.39;85.74
65329;BME280;51941;52.210;5.158;2022-09-09T02:43:22;100616.56;;;14.35;86.21
65329;BME280;51941;52.210;5.158;2022-09-09T02:45:56;100610.13;;;14.31;86.31
65329;BME280;51941;52.210;5.158;2022-09-09T02:48:33;100607.22;;;14.28;86.24
65329;BME280;51941;52.210;5.158;2022-09-09T02:51:08;100606.13;;;14.24;86.27
65329;BME280;51941;52.210;5.158;2022-09-09T02:53:41;100609.31;;;14.21;86.34
65329;BME280;51941;52.210;5.158;2022-09-09T02:56:14;100612.25;;;14.19;86.41
65329;BME280;51941;52.210;5.158;2022-09-09T02:58:45;100598.94;;;14.19;86.47
65329;BME280;51941;52.210;5.158;2022-09-09T03:01:12;100606.13;;;14.19;86.15
65329;BME280;51941;52.210;5.158;2022-09-09T03:03:40;100605.56;;;14.17;86.15
65329;BME280;51941;52.210;5.158;2022-09-09T03:06:14;100600.25;;;14.17;86.37
65329;BME280;51941;52.210;5.158;2022-09-09T03:08:45;100601.28;;;14.16;86.07
65329;BME280;51941;52.210;5.158;2022-09-09T03:11:12;100598.63;;;14.16;nan
65329;BME280;51941;52.210;5.158;2022-09-09T03:13:41;100560.22;;;13.91;86.74
65329;BME280;51941;52.210;5.158;2022-09-09T03:16:10;100595.72;;;14.17;87.20
65329;BME280;51941;52.210;5.158;2022-09-09T03:18:42;100589.59;;;14.22;86.74
65329;BME280;51941;52.210;5.158;2022-09-09T03:21:11;100590.41;;;14.22;86.87
65329;BME280;51941;52.210;5.158;2022-09-09T03:23:39;100582.41;;;14.22;86.84
65329;BME280;51941;52.210;5.158;2022-09-09T03:26:06;100588.53;;;14.18;86.93
65329;BME280;51941;52.210;5.158;2022-09-09T03:28:40;100541.03;;;13.89;86.98
65329;BME280;51941;52.210;5.158;2022-09-09T03:31:06;100596.78;;;14.16;86.93
65329;BME280;51941;52.210;5.158;2022-09-09T03:33:40;100599.69;;;14.15;87.28
65329;BME280;51941;52.210;5.158;2022-09-09T03:36:10;100599.69;;;14.10;87.17
65329;BME280;51941;52.210;5.158;2022-09-09T03:38:37;100603.41;;;14.09;87.42
65329;BME280;51941;52.210;5.158;2022-09-09T03:41:05;100595.41;;;14.09;87.05
65329;BME280;51941;52.210;5.158;2022-09-09T03:43:33;100580.72;;;13.96;87.43
65329;BME280;51941;52.210;5.158;2022-09-09T03:46:00;100595.66;;;14.07;86.99
65329;BME280;51941;52.210;5.158;2022-09-09T03:48:29;100590.59;;;14.00;87.77
65329;BME280;51941;52.210;5.158;2022-09-09T03:50:57;100586.03;;;13.96;87.66
65329;BME280;51941;52.210;5.158;2022-09-09T03:53:27;100593.22;;;13.95;87.79
65329;BME280;51941;52.210;5.158;2022-09-09T03:55:56;100586.00;;;13.91;87.91
65329;BME280;51941;52.210;5.158;2022-09-09T03:58:26;100596.66;;;13.91;87.78
65329;BME280;51941;52.210;5.158;2022-09-09T04:01:00;100590.78;;;13.89;87.89
65329;BME280;51941;52.210;5.158;2022-09-09T04:03:28;100595.03;;;13.85;87.81
65329;BME280;51941;52.210;5.158;2022-09-09T04:05:58;100600.34;;;13.85;87.60
65329;BME280;51941;52.210;5.158;2022-09-09T04:08:27;100591.53;;;13.79;87.86
65329;BME280;51941;52.210;5.158;2022-09-09T04:10:55;100596.03;;;13.79;88.24
65329;BME280;51941;52.210;5.158;2022-09-09T04:13:24;100512.47;;;13.27;87.76
65329;BME280;51941;52.210;5.158;2022-09-09T04:15:52;100582.22;;;13.77;88.46
65329;BME280;51941;52.210;5.158;2022-09-09T04:18:20;100581.41;;;13.76;87.84
65329;BME280;51941;52.210;5.158;2022-09-09T04:20:48;100578.75;;;13.76;88.06
65329;BME280;51941;52.210;5.158;2022-09-09T04:23:19;100584.09;;;13.76;88.10
65329;BME280;51941;52.210;5.158;2022-09-09T04:25:47;100577.97;;;13.76;88.25
65329;BME280;51941;52.210;5.158;2022-09-09T04:28:15;100579.84;;;13.80;87.96
65329;BME280;51941;52.210;5.158;2022-09-09T04:30:42;100582.00;;;13.83;87.61
65329;BME280;51941;52.210;5.158;2022-09-09T04:33:10;100547.59;;;13.66;87.79
65329;BME280;51941;52.210;5.158;2022-09-09T04:35:38;100568.94;;;13.82;88.34
65329;BME280;51941;52.210;5.158;2022-09-09T04:38:05;100567.59;;;13.79;88.70
65329;BME280;51941;52.210;5.158;2022-09-09T04:40:36;100566.78;;;13.79;88.60
65329;BME280;51941;52.210;5.158;2022-09-09T04:43:09;100564.13;;;13.79;88.20
65329;BME280;51941;52.210;5.158;2022-09-09T04:45:36;100558.00;;;13.78;88.28
65329;BME280;51941;52.210;5.158;2022-09-09T04:48:03;100562.50;;;13.78;88.15
65329;BME280;51941;52.210;5.158;2022-09-09T04:50:30;100554.28;;;13.74;88.12
65329;BME280;51941;52.210;5.158;2022-09-09T04:53:00;100559.84;;;13.78;88.15
65329;BME280;51941;52.210;5.158;2022-09-09T04:55:27;100558.28;;;13.77;88.07
65329;BME280;51941;52.210;5.158;2022-09-09T04:57:55;100560.13;;;13.76;88.02
65329;BME280;51941;52.210;5.158;2022-09-09T05:00:23;100558.53;;;13.75;88.34
65329;BME280;51941;52.210;5.158;2022-09-09T05:02:51;100554.78;;;13.71;88.33
65329;BME280;51941;52.210;5.158;2022-09-09T05:05:17;100563.00;;;13.69;88.90
65329;BME280;51941;52.210;5.158;2022-09-09T05:07:46;100557.44;;;13.71;88.42
65329;BME280;51941;52.210;5.158;2022-09-09T05:10:14;100519.81;;;13.52;88.15
65329;BME280;51941;52.210;5.158;2022-09-09T05:12:43;100553.22;;;13.75;88.34
65329;BME280;51941;52.210;5.158;2022-09-09T05:15:19;100555.88;;;13.75;88.08
65329;BME280;51941;52.210;5.158;2022-09-09T05:17:46;100557.19;;;13.78;88.43
65329;BME280;51941;52.210;5.158;2022-09-09T05:20:14;100551.09;;;13.77;88.73
65329;BME280;51941;52.210;5.158;2022-09-09T05:22:42;100548.72;;;13.81;88.52
65329;BME280;51941;52.210;5.158;2022-09-09T05:25:09;100553.22;;;13.80;88.68
65329;BME280;51941;52.210;5.158;2022-09-09T05:27:36;100552.44;;;13.80;88.54
65329;BME280;51941;52.210;5.158;2022-09-09T05:30:04;100557.19;;;13.78;88.84
65329;BME280;51941;52.210;5.158;2022-09-09T05:32:32;100554.84;;;13.81;89.12
65329;BME280;51941;52.210;5.158;2022-09-09T05:34:59;100567.88;;;13.83;89.11
65329;BME280;51941;52.210;5.158;2022-09-09T05:37:27;100558.59;;;13.85;88.97
65329;BME280;51941;52.210;5.158;2022-09-09T05:39:55;100564.72;;;13.86;89.20
65329;BME280;51941;52.210;5.158;2022-09-09T05:42:21;100554.09;;;13.91;88.78
65329;BME280;51941;52.210;5.158;2022-09-09T05:44:48;100541.06;;;13.94;88.81
65329;BME280;51941;52.210;5.158;2022-09-09T05:47:16;100534.16;;;13.93;89.04
65329;BME280;51941;52.210;5.158;2022-09-09T05:49:44;100548.00;;;14.00;89.46
65329;BME280;51941;52.210;5.158;2022-09-09T05:52:11;100563.72;;;14.07;89.11
65329;BME280;51941;52.210;5.158;2022-09-09T05:54:38;100560.31;;;14.12;89.20
65329;BME280;51941;52.210;5.158;2022-09-09T05:57:08;100560.56;;;14.15;89.73
65329;BME280;51941;52.210;5.158;2022-09-09T05:59:35;100565.13;;;14.25;89.32
65329;BME280;51941;52.210;5.158;2022-09-09T06:02:01;100575.53;;;14.26;89.73
65329;BME280;51941;52.210;5.158;2022-09-09T06:04:33;100560.66;;;14.40;89.37
65329;BME280;51941;52.210;5.158;2022-09-09T06:07:02;100552.94;;;14.49;89.13
65329;BME280;51941;52.210;5.158;2022-09-09T06:09:29;100559.13;;;14.55;89.32
65329;BME280;51941;52.210;5.158;2022-09-09T06:11:56;100558.31;;;14.59;88.98
65329;BME280;51941;52.210;5.158;2022-09-09T06:14:24;100538.31;;;14.52;89.18
65329;BME280;51941;52.210;5.158;2022-09-09T06:16:55;100562.66;;;14.91;88.96
65329;BME280;51941;52.210;5.158;2022-09-09T06:19:25;100561.31;;;15.24;88.98
65329;BME280;51941;52.210;5.158;2022-09-09T06:21:55;100561.25;;;15.54;88.29
65329;BME280;51941;52.210;5.158;2022-09-09T06:24:23;100548.66;;;15.95;87.51
65329;BME280;51941;52.210;5.158;2022-09-09T06:26:50;100553.69;;;16.51;85.12
65329;BME280;51941;52.210;5.158;2022-09-09T06:29:23;100554.06;;;17.17;82.96
65329;BME280;51941;52.210;5.158;2022-09-09T06:31:51;100540.66;;;17.75;80.56
65329;BME280;51941;52.210;5.158;2022-09-09T06:34:23;100548.44;;;18.38;77.73
65329;BME280;51941;52.210;5.158;2022-09-09T06:36:54;100542.94;;;18.85;75.51
65329;BME280;51941;52.210;5.158;2022-09-09T06:39:24;100538.53;;;18.76;72.84
65329;BME280;51941;52.210;5.158;2022-09-09T06:41:52;100535.97;;;18.47;73.29
65329;BME280;51941;52.210;5.158;2022-09-09T06:44:48;100539.66;;;18.13;74.72
65329;BME280;51941;52.210;5.158;2022-09-09T06:47:32;100537.66;;;18.24;75.02
65329;BME280;51941;52.210;5.158;2022-09-09T06:50:00;100537.66;;;18.24;74.59
65329;BME280;51941;52.210;5.158;2022-09-09T06:52:27;100492.84;;;17.87;74.27
65329;BME280;51941;52.210;5.158;2022-09-09T06:54:56;100531.88;;;17.93;74.53
65329;BME280;51941;52.210;5.158;2022-09-09T06:57:24;100542.53;;;17.74;75.06
65329;BME280;51941;52.210;5.158;2022-09-09T06:59:51;100547.03;;;17.50;75.51
65329;BME280;51941;52.210;5.158;2022-09-09T07:02:19;100547.13;;;17.40;75.79
65329;BME280;51941;52.210;5.158;2022-09-09T07:04:46;100541.59;;;17.31;76.30
65329;BME280;51941;52.210;5.158;2022-09-09T07:07:17;100552.41;;;17.21;76.32
65329;BME280;51941;52.210;5.158;2022-09-09T07:09:44;100553.00;;;17.42;76.74
65329;BME280;51941;52.210;5.158;2022-09-09T07:12:13;100558.25;;;17.81;76.18
65329;BME280;51941;52.210;5.158;2022-09-09T07:14:47;100558.69;;;18.12;75.60
65329;BME280;51941;52.210;5.158;2022-09-09T07:17:14;100552.31;;;18.27;74.84
65329;BME280;51941;52.210;5.158;2022-09-09T07:19:41;100545.88;;;18.28;74.18
65329;BME280;51941;52.210;5.158;2022-09-09T07:22:09;100548.00;;;18.31;74.12
65329;BME280;51941;52.210;5.158;2022-09-09T07:24:36;100521.06;;;18.22;74.18
65329;BME280;51941;52.210;5.158;2022-09-09T07:27:03;100544.44;;;18.35;73.98
65329;BME280;51941;52.210;5.158;2022-09-09T07:29:32;100538.06;;;18.31;73.60
65329;BME280;51941;52.210;5.158;2022-09-09T07:31:59;100555.91;;;18.41;73.67
65329;BME280;51941;52.210;5.158;2022-09-09T07:34:32;100529.81;;;18.28;73.22
65329;BME280;51941;52.210;5.158;2022-09-09T07:36:59;100547.34;;;18.39;73.41
65329;BME280;51941;52.210;5.158;2022-09-09T07:39:26;100550.53;;;18.41;73.23
65329;BME280;51941;52.210;5.158;2022-09-09T07:41:53;100548.16;;;18.39;73.13
65329;BME280;51941;52.210;5.158;2022-09-09T07:44:23;100540.03;;;18.26;73.06
65329;BME280;51941;52.210;5.158;2022-09-09T07:47:10;100555.09;;;18.22;73.11
65329;BME280;51941;52.210;5.158;2022-09-09T07:49:43;100553.03;;;18.13;73.23
65329;BME280;51941;52.210;5.158;2022-09-09T07:52:13;100535.94;;;18.09;73.63
65329;BME280;51941;52.210;5.158;2022-09-09T07:54:42;100550.88;;;18.15;73.10
65329;BME280;51941;52.210;5.158;2022-09-09T07:57:12;100544.59;;;18.25;73.09
65329;BME280;51941;52.210;5.158;2022-09-09T07:59:39;100543.31;;;18.41;72.99
65329;BME280;51941;52.210;5.158;2022-09-09T08:02:09;100524.25;;;18.43;72.41
65329;BME280;51941;52.210;5.158;2022-09-09T08:04:36;100550.44;;;18.51;72.02
65329;BME280;51941;52.210;5.158;2022-09-09T08:07:03;100522.69;;;18.18;72.13
65329;BME280;51941;52.210;5.158;2022-09-09T08:09:35;100549.66;;;18.27;72.21
65329;BME280;51941;52.210;5.158;2022-09-09T08:12:24;100552.13;;;18.23;72.49
65329;BME280;51941;52.210;5.158;2022-09-09T08:14:51;100551.25;;;18.28;72.32
65329;BME280;51941;52.210;5.158;2022-09-09T08:17:22;100533.91;;;18.01;72.50
65329;BME280;51941;52.210;5.158;2022-09-09T08:19:49;100557.84;;;18.16;72.45
65329;BME280;51941;52.210;5.158;2022-09-09T08:22:21;100556.44;;;18.19;72.49
65329;BME280;51941;52.210;5.158;2022-09-09T08:24:49;100553.47;;;18.21;72.18
65329;BME280;51941;52.210;5.158;2022-09-09T08:27:17;100554.06;;;18.36;72.19
65329;BME280;51941;52.210;5.158;2022-09-09T08:29:44;100555.81;;;18.46;71.77
65329;BME280;51941;52.210;5.158;2022-09-09T08:32:11;100553.31;;;18.54;71.53
65329;BME280;51941;52.210;5.158;2022-09-09T08:34:40;100554.75;;;18.66;71.11
65329;BME280;51941;52.210;5.158;2022-09-09T08:37:12;100558.03;;;18.63;70.67
65329;BME280;51941;52.210;5.158;2022-09-09T08:39:40;100565.50;;;18.66;70.44
65329;BME280;51941;52.210;5.158;2022-09-09T08:42:24;100538.78;;;18.61;70.21
65329;BME280;51941;52.210;5.158;2022-09-09T08:47:49;100567.72;;;18.96;69.75
65329;BME280;51941;52.210;5.158;2022-09-09T08:50:26;100575.22;;;19.13;69.17
65329;BME280;51941;52.210;5.158;2022-09-09T08:53:02;100545.91;;;18.84;68.76
65329;BME280;51941;52.210;5.158;2022-09-09T08:55:38;100569.94;;;18.89;69.05
65329;BME280;51941;52.210;5.158;2022-09-09T08:58:13;100567.00;;;18.72;68.97
65329;BME280;51941;52.210;5.158;2022-09-09T09:01:02;100576.22;;;18.66;69.30
65329;BME280;51941;52.210;5.158;2022-09-09T09:03:42;100576.63;;;18.54;69.72
65329;BME280;51941;52.210;5.158;2022-09-09T09:06:23;100573.66;;;18.56;69.89
65329;BME280;51941;52.210;5.158;2022-09-09T09:08:59;100584.78;;;18.68;69.86
65329;BME280;51941;52.210;5.158;2022-09-09T09:11:34;100578.81;;;18.71;69.76
65329;BME280;51941;52.210;5.158;2022-09-09T09:14:03;100574.75;;;18.73;69.73
65329;BME280;51941;52.210;5.158;2022-09-09T09:16:34;100551.38;;;18.60;69.27
65329;BME280;51941;52.210;5.158;2022-09-09T09:19:04;100575.63;;;18.87;69.24
65329;BME280;51941;52.210;5.158;2022-09-09T09:21:38;100581.84;;;18.83;69.17
65329;BME280;51941;52.210;5.158;2022-09-09T09:24:16;100593.47;;;18.78;69.37
65329;BME280;51941;52.210;5.158;2022-09-09T09:26:45;100583.38;;;18.70;69.54
65329;BME280;51941;52.210;5.158;2022-09-09T09:29:15;100582.88;;;18.68;69.56
65329;BME280;51941;52.210;5.158;2022-09-09T09:31:45;100587.81;;;18.61;69.75
65329;BME280;51941;52.210;5.158;2022-09-09T09:34:15;100580.25;;;18.63;69.64
65329;BME280;51941;52.210;5.158;2022-09-09T09:36:52;100581.72;;;18.56;69.87
65329;BME280;51941;52.210;5.158;2022-09-09T09:39:24;100574.47;;;18.56;69.78
65329;BME280;51941;52.210;5.158;2022-09-09T09:41:52;100588.25;;;18.49;70.04
65329;BME280;51941;52.210;5.158;2022-09-09T09:44:25;100588.25;;;18.44;70.01
65329;BME280;51941;52.210;5.158;2022-09-09T09:46:52;100582.84;;;18.31;70.29
65329;BME280;51941;52.210;5.158;2022-09-09T09:49:20;100584.47;;;18.27;70.75
65329;BME280;51941;52.210;5.158;2022-09-09T09:51:48;100564.03;;;18.12;70.66
65329;BME280;51941;52.210;5.158;2022-09-09T09:54:18;100586.66;;;18.25;71.03
65329;BME280;51941;52.210;5.158;2022-09-09T09:56:53;100592.03;;;18.25;71.22
65329;BME280;51941;52.210;5.158;2022-09-09T09:59:32;100580.78;;;18.23;71.69
65329;BME280;51941;52.210;5.158;2022-09-09T10:02:16;100581.75;;;18.32;71.92
65329;BME280;51941;52.210;5.158;2022-09-09T10:04:46;100583.56;;;18.36;72.22
65329;BME280;51941;52.210;5.158;2022-09-09T10:07:18;100587.25;;;18.40;72.44
65329;BME280;51941;52.210;5.158;2022-09-09T10:09:47;100585.16;;;18.37;72.71
65329;BME280;51941;52.210;5.158;2022-09-09T10:12:24;100584.16;;;18.33;72.84
65329;BME280;51941;52.210;5.158;2022-09-09T10:14:58;100593.19;;;18.37;72.95
65329;BME280;51941;52.210;5.158;2022-09-09T10:17:32;100587.44;;;18.49;72.82
65329;BME280;51941;52.210;5.158;2022-09-09T10:20:15;100560.50;;;18.59;72.57
65329;BME280;51941;52.210;5.158;2022-09-09T10:22:50;100586.50;;;18.96;71.74
65329;BME280;51941;52.210;5.158;2022-09-09T10:25:24;100582.53;;;19.07;71.29
65329;BME280;51941;52.210;5.158;2022-09-09T10:28:07;100594.88;;;19.08;71.39
65329;BME280;51941;52.210;5.158;2022-09-09T10:30:45;100591.53;;;18.98;72.47
65329;BME280;51941;52.210;5.158;2022-09-09T10:33:24;100594.28;;;18.79;73.73
65329;BME280;51941;52.210;5.158;2022-09-09T10:36:01;100600.78;;;18.73;74.99
65329;BME280;51941;52.210;5.158;2022-09-09T10:38:39;100587.44;;;18.68;75.60
65329;BME280;51941;52.210;5.158;2022-09-09T10:41:33;100589.88;;;19.02;75.90
65329;BME280;51941;52.210;5.158;2022-09-09T10:44:28;100592.03;;;19.32;76.09
65329;BME280;51941;52.210;5.158;2022-09-09T10:47:24;100582.41;;;19.63;74.88
65329;BME280;51941;52.210;5.158;2022-09-09T10:50:09;100562.41;;;19.70;75.19
65329;BME280;51941;52.210;5.158;2022-09-09T10:52:43;100551.16;;;19.54;74.12
65329;BME280;51941;52.210;5.158;2022-09-09T10:55:17;100576.47;;;19.67;74.37
65329;BME280;51941;52.210;5.158;2022-09-09T10:57:46;100575.44;;;19.62;74.33
65329;BME280;51941;52.210;5.158;2022-09-09T11:00:17;100579.72;;;19.63;73.79
65329;BME280;51941;52.210;5.158;2022-09-09T11:02:48;100576.63;;;19.70;74.21
65329;BME280;51941;52.210;5.158;2022-09-09T11:05:20;100579.03;;;19.85;73.71
65329;BME280;51941;52.210;5.158;2022-09-09T11:07:51;100585.22;;;19.99;73.36
65329;BME280;51941;52.210;5.158;2022-09-09T11:10:25;100556.75;;;19.98;72.52
65329;BME280;51941;52.210;5.158;2022-09-09T11:13:00;100577.94;;;20.14;71.98
65329;BME280;51941;52.210;5.158;2022-09-09T11:15:33;100569.28;;;20.03;71.82
65329;BME280;51941;52.210;5.158;2022-09-09T11:18:04;100578.63;;;20.06;71.71
65329;BME280;51941;52.210;5.158;2022-09-09T11:20:33;100561.63;;;19.96;71.68
65329;BME280;51941;52.210;5.158;2022-09-09T11:23:04;100564.09;;;20.07;71.41
65329;BME280;51941;52.210;5.158;2022-09-09T11:25:36;100572.66;;;20.09;71.25
65329;BME280;51941;52.210;5.158;2022-09-09T11:28:18;100567.09;;;19.91;71.24
65329;BME280;51941;52.210;5.158;2022-09-09T11:30:59;100572.28;;;19.74;70.69
65329;BME280;51941;52.210;5.158;2022-09-09T11:33:52;100559.63;;;19.61;71.04
65329;BME280;51941;52.210;5.158;2022-09-09T11:36:39;100576.63;;;19.70;71.43
65329;BME280;51941;52.210;5.158;2022-09-09T11:39:23;100562.34;;;19.75;71.55
65329;BME280;51941;52.210;5.158;2022-09-09T11:42:07;100526.13;;;19.72;71.32
65329;BME280;51941;52.210;5.158;2022-09-09T11:44:34;100556.25;;;19.96;71.29
65329;BME280;51941;52.210;5.158;2022-09-09T11:47:00;100555.94;;;19.98;70.89
65329;BME280;51941;52.210;5.158;2022-09-09T11:49:29;100509.81;;;19.69;70.91
65329;BME280;51941;52.210;5.158;2022-09-09T11:52:11;100549.47;;;19.85;70.95
65329;BME280;51941;52.210;5.158;2022-09-09T11:54:46;100555.56;;;19.77;71.90
65329;BME280;51941;52.210;5.158;2022-09-09T11:57:24;100563.41;;;19.46;72.60
65329;BME280;51941;52.210;5.158;2022-09-09T11:59:51;100567.19;;;19.26;72.64
65329;BME280;51941;52.210;5.158;2022-09-09T12:02:22;100571.31;;;19.05;73.55
65329;BME280;51941;52.210;5.158;2022-09-09T12:04:56;100580.13;;;18.73;74.58
65329;BME280;51941;52.210;5.158;2022-09-09T12:07:31;100578.47;;;18.59;76.46
65329;BME280;51941;52.210;5.158;2022-09-09T12:10:02;100572.44;;;18.67;76.63
65329;BME280;51941;52.210;5.158;2022-09-09T12:12:33;100576.13;;;18.89;76.42
65329;BME280;51941;52.210;5.158;2022-09-09T12:17:47;100572.44;;;19.50;75.67
65329;BME280;51941;52.210;5.158;2022-09-09T12:20:17;100572.53;;;19.45;75.14
65329;BME280;51941;52.210;5.158;2022-09-09T12:25:46;100564.88;;;19.39;75.61
65329;BME280;51941;52.210;5.158;2022-09-09T12:28:18;100568.19;;;19.63;74.97
65329;BME280;51941;52.210;5.158;2022-09-09T12:30:52;100547.59;;;19.72;74.77
65329;BME280;51941;52.210;5.158;2022-09-09T12:33:23;100567.97;;;20.14;74.31
65329;BME280;51941;52.210;5.158;2022-09-09T12:35:53;100558.50;;;20.30;72.97
65329;BME280;51941;52.210;5.158;2022-09-09T12:38:27;100557.03;;;20.24;72.93
65329;BME280;51941;52.210;5.158;2022-09-09T12:40:57;100515.06;;;19.87;72.02
65329;BME280;51941;52.210;5.158;2022-09-09T12:43:27;100563.50;;;19.96;72.09
65329;BME280;51941;52.210;5.158;2022-09-09T12:45:54;100566.41;;;19.72;72.00
65329;BME280;51941;52.210;5.158;2022-09-09T12:48:31;100515.06;;;19.46;72.25
65329;BME280;51941;52.210;5.158;2022-09-09T12:50:59;100562.00;;;19.76;72.33
65329;BME280;51941;52.210;5.158;2022-09-09T12:53:30;100541.22;;;19.68;72.19
65329;BME280;51941;52.210;5.158;2022-09-09T12:56:00;100553.28;;;19.71;72.18
65329;BME280;51941;52.210;5.158;2022-09-09T12:58:30;100556.25;;;19.69;71.93
65329;BME280;51941;52.210;5.158;2022-09-09T13:00:59;100503.09;;;19.25;71.91
65329;BME280;51941;52.210;5.158;2022-09-09T13:03:27;100529.56;;;19.32;72.27
65329;BME280;51941;52.210;5.158;2022-09-09T13:05:58;100539.28;;;19.27;72.39
65329;BME280;51941;52.210;5.158;2022-09-09T13:08:25;100536.75;;;19.17;72.72
65329;BME280;51941;52.210;5.158;2022-09-09T13:10:54;100556.75;;;19.25;72.67
65329;BME280;51941;52.210;5.158;2022-09-09T13:13:26;100553.09;;;19.21;73.18
65329;BME280;51941;52.210;5.158;2022-09-09T13:15:58;100552.44;;;19.10;73.55
65329;BME280;51941;52.210;5.158;2022-09-09T13:18:29;100534.22;;;18.94;73.35
65329;BME280;51941;52.210;5.158;2022-09-09T13:20:56;100563.69;;;19.12;73.43
65329;BME280;51941;52.210;5.158;2022-09-09T13:23:26;100515.63;;;18.97;73.50